sensor_id;sensor_type;location;lat;lon;timestamp;temperature;humidity
2327;DHT22;1174;51.588;7.328;2023-03-01T00:00:27;1.90;99.90
2327;DHT22;1174;51.588;7.328;2023-03-01T00:02:53;1.90;99.90
2327;DHT22;1174;51.588;7.328;2023-03-01T00:05:21;2.00;99.90
2327;DHT22;1174;51.588;7.328;2023-03-01T00:07:52;2.00;99.90
2327;DHT22;1174;51.588;7.328;2023-03-01T00:10:19;2.00;99.90
2327;DHT22;1174;51.588;7.328;2023-03-01T00:12:46;1.90;99.90
2327;DHT22;1174;51.588;7.328;2023-03-01T00:15:13;1.90;99.90
2327;DHT22;1174;51.588;7.328;2023-03-01T00:17:40;1.70;99.90
2327;DHT22;1174;51.588;7.328;2023-03-01T00:20:08;1.60;99.90
2327;DHT22;1174;51.588;7.328;2023-03-01T00:22:35;1.40;99.90
2327;DHT22;1174;51.588;7.328;2023-03-01T00:25:04;1.20;99.90
2327;DHT22;1174;51.588;7.328;2023-03-01T00:27:31;1.20;99.90
2327;DHT22;1174;51.588;7.328;2023-03-01T00:29:58;1.10;99.90
2327;DHT22;1174;51.588;7.328;2023-03-01T00:32:25;1.10;99.90
2327;DHT22;1174;51.588;7.328;2023-03-01T00:34:52;1.00;99.90
2327;DHT22;1174;51.588;7.328;2023-03-01T00:37:22;1.00;99.90
2327;DHT22;1174;51.588;7.328;2023-03-01T00:39:50;0.90;99.90
2327;DHT22;1174;51.588;7.328;2023-03-01T00:42:18;1.00;99.90
2327;DHT22;1174;51.588;7.328;2023-03-01T00:44:45;0.80;99.90
2327;DHT22;1174;51.588;7.328;2023-03-01T00:47:12;0.70;99.90
2327;DHT22;1174;51.588;7.328;2023-03-01T00:49:39;0.60;99.90
2327;DHT22;1174;51.588;7.328;2023-03-01T00:52:06;0.50;99.90
2327;DHT22;1174;51.588;7.328;2023-03-01T00:54:33;0.40;99.90
2327;DHT22;1174;51.588;7.328;2023-03-01T00:57:00;0.40;99.90
2327;DHT22;1174;51.588;7.328;2023-03-01T00:59:28;0.50;99.90
2327;DHT22;1174;51.588;7.328;2023-03-01T01:01:55;0.60;99.90
2327;DHT22;1174;51.588;7.328;2023-03-01T01:04:22;0.60;99.90
2327;DHT22;1174;51.588;7.328;2023-03-01T01:06:49;0.30;99.90
2327;DHT22;1174;51.588;7.328;2023-03-01T01:09:17;0.20;99.90
2327;DHT22;1174;51.588;7.328;2023-03-01T01:11:44;0.20;99.90
2327;DHT22;1174;51.588;7.328;2023-03-01T01:14:11;0.30;99.90
2327;DHT22;1174;51.588;7.328;2023-03-01T01:16:40;0.20;99.90
2327;DHT22;1174;51.588;7.328;2023-03-01T01:19:07;0.30;99.90
2327;DHT22;1174;51.588;7.328;2023-03-01T01:21:34;0.10;99.90
2327;DHT22;1174;51.588;7.328;2023-03-01T01:24:03;0.10;99.90
2327;DHT22;1174;51.588;7.328;2023-03-01T01:26:33;0.10;99.90
2327;DHT22;1174;51.588;7.328;2023-03-01T01:29:04;0.10;99.90
2327;DHT22;1174;51.588;7.328;2023-03-01T01:31:32;-0.10;99.90
2327;DHT22;1174;51.588;7.328;2023-03-01T01:34:02;-0.20;99.90
2327;DHT22;1174;51.588;7.328;2023-03-01T01:36:30;-0.20;99.90
2327;DHT22;1174;51.588;7.328;2023-03-01T01:39:00;-0.30;99.90
2327;DHT22;1174;51.588;7.328;2023-03-01T01:41:28;-0.30;99.90
2327;DHT22;1174;51.588;7.328;2023-03-01T01:44:14;-0.30;99.90
2327;DHT22;1174;51.588;7.328;2023-03-01T01:46:42;-0.10;99.90
2327;DHT22;1174;51.588;7.328;2023-03-01T01:49:19;-0.40;99.90
2327;DHT22;1174;51.588;7.328;2023-03-01T01:51:49;-0.40;99.90
2327;DHT22;1174;51.588;7.328;2023-03-01T01:54:20;-0.30;99.90
2327;DHT22;1174;51.588;7.328;2023-03-01T01:56:52;-0.30;99.90
2327;DHT22;1174;51.588;7.328;2023-03-01T01:59:21;-0.20;99.90
2327;DHT22;1174;51.588;7.328;2023-03-01T02:01:50;-0.30;99.90
2327;DHT22;1174;51.588;7.328;2023-03-01T02:04:20;-0.30;99.90
2327;DHT22;1174;51.588;7.328;2023-03-01T02:06:51;-0.20;99.90
2327;DHT22;1174;51.588;7.328;2023-03-01T02:09:22;-0.40;99.90
2327;DHT22;1174;51.588;7.328;2023-03-01T02:11:51;-0.40;99.90
2327;DHT22;1174;51.588;7.328;2023-03-01T02:14:18;-0.40;99.90
2327;DHT22;1174;51.588;7.328;2023-03-01T02:16:45;-0.40;99.90
2327;DHT22;1174;51.588;7.328;2023-03-01T02:19:21;-0.50;99.90
2327;DHT22;1174;51.588;7.328;2023-03-01T02:21:56;-0.50;99.90
2327;DHT22;1174;51.588;7.328;2023-03-01T02:24:32;-0.50;99.90
2327;DHT22;1174;51.588;7.328;2023-03-01T02:27:03;-0.50;99.90
2327;DHT22;1174;51.588;7.328;2023-03-01T02:29:31;-0.60;99.90
2327;DHT22;1174;51.588;7.328;2023-03-01T02:32:01;-0.60;99.90
2327;DHT22;1174;51.588;7.328;2023-03-01T02:34:28;-0.70;99.90
2327;DHT22;1174;51.588;7.328;2023-03-01T02:36:57;-0.60;99.90
2327;DHT22;1174;51.588;7.328;2023-03-01T02:39:30;-0.70;99.90
2327;DHT22;1174;51.588;7.328;2023-03-01T02:41:58;-0.70;99.90
2327;DHT22;1174;51.588;7.328;2023-03-01T02:44:25;-0.80;99.90
2327;DHT22;1174;51.588;7.328;2023-03-01T02:46:56;-1.00;99.90
2327;DHT22;1174;51.588;7.328;2023-03-01T02:49:26;-1.00;99.90
2327;DHT22;1174;51.588;7.328;2023-03-01T02:52:17;-0.80;99.90
2327;DHT22;1174;51.588;7.328;2023-03-01T02:54:52;-0.80;99.90
2327;DHT22;1174;51.588;7.328;2023-03-01T02:57:22;-0.70;99.90
2327;DHT22;1174;51.588;7.328;2023-03-01T02:59:50;-1.00;99.90
2327;DHT22;1174;51.588;7.328;2023-03-01T03:02:24;-1.00;99.90
2327;DHT22;1174;51.588;7.328;2023-03-01T03:05:04;-1.00;99.90
2327;DHT22;1174;51.588;7.328;2023-03-01T03:07:34;-1.10;99.90
2327;DHT22;1174;51.588;7.328;2023-03-01T03:10:02;-1.20;99.90
2327;DHT22;1174;51.588;7.328;2023-03-01T03:12:29;-1.20;99.90
2327;DHT22;1174;51.588;7.328;2023-03-01T03:14:56;-1.20;99.90
2327;DHT22;1174;51.588;7.328;2023-03-01T03:17:24;-1.20;99.90
2327;DHT22;1174;51.588;7.328;2023-03-01T03:19:51;-1.30;99.90
2327;DHT22;1174;51.588;7.328;2023-03-01T03:22:18;-1.30;99.90
2327;DHT22;1174;51.588;7.328;2023-03-01T03:24:45;-1.20;99.90
2327;DHT22;1174;51.588;7.328;2023-03-01T03:27:14;-1.20;99.90
2327;DHT22;1174;51.588;7.328;2023-03-01T03:29:40;-1.20;99.90
2327;DHT22;1174;51.588;7.328;2023-03-01T03:32:07;-1.20;99.90
2327;DHT22;1174;51.588;7.328;2023-03-01T03:34:36;-1.20;99.90
2327;DHT22;1174;51.588;7.328;2023-03-01T03:37:02;-1.20;99.90
2327;DHT22;1174;51.588;7.328;2023-03-01T03:39:49;-1.20;99.90
2327;DHT22;1174;51.588;7.328;2023-03-01T03:42:20;-1.40;99.90
2327;DHT22;1174;51.588;7.328;2023-03-01T03:44:48;-1.30;99.90
2327;DHT22;1174;51.588;7.328;2023-03-01T03:47:15;-1.30;99.90
2327;DHT22;1174;51.588;7.328;2023-03-01T03:49:43;-1.40;99.90
2327;DHT22;1174;51.588;7.328;2023-03-01T03:52:10;-1.40;99.90
2327;DHT22;1174;51.588;7.328;2023-03-01T03:54:39;-1.50;99.90
2327;DHT22;1174;51.588;7.328;2023-03-01T03:57:06;-1.50;99.90
2327;DHT22;1174;51.588;7.328;2023-03-01T03:59:33;-1.50;99.90
2327;DHT22;1174;51.588;7.328;2023-03-01T04:02:02;-1.50;99.90
2327;DHT22;1174;51.588;7.328;2023-03-01T04:04:29;-1.50;99.90
2327;DHT22;1174;51.588;7.328;2023-03-01T04:06:57;-1.50;99.90
2327;DHT22;1174;51.588;7.328;2023-03-01T04:09:24;-1.50;99.90
2327;DHT22;1174;51.588;7.328;2023-03-01T04:11:51;-1.40;99.90
2327;DHT22;1174;51.588;7.328;2023-03-01T04:14:20;-1.40;99.90
2327;DHT22;1174;51.588;7.328;2023-03-01T04:16:47;-1.40;99.90
2327;DHT22;1174;51.588;7.328;2023-03-01T04:19:14;-1.30;99.90
2327;DHT22;1174;51.588;7.328;2023-03-01T04:21:41;-1.40;99.90
2327;DHT22;1174;51.588;7.328;2023-03-01T04:24:10;-1.50;99.90
2327;DHT22;1174;51.588;7.328;2023-03-01T04:26:37;-1.40;99.90
2327;DHT22;1174;51.588;7.328;2023-03-01T04:29:04;-1.40;99.90
2327;DHT22;1174;51.588;7.328;2023-03-01T04:31:31;-1.40;99.90
2327;DHT22;1174;51.588;7.328;2023-03-01T04:33:59;-1.40;99.90
2327;DHT22;1174;51.588;7.328;2023-03-01T04:36:28;-1.40;99.90
2327;DHT22;1174;51.588;7.328;2023-03-01T04:38:55;-1.40;99.90
2327;DHT22;1174;51.588;7.328;2023-03-01T04:41:26;-1.50;99.90
2327;DHT22;1174;51.588;7.328;2023-03-01T04:43:52;-1.60;99.90
2327;DHT22;1174;51.588;7.328;2023-03-01T04:46:21;-1.50;99.90
2327;DHT22;1174;51.588;7.328;2023-03-01T04:48:48;-1.50;99.90
2327;DHT22;1174;51.588;7.328;2023-03-01T04:51:16;-1.50;99.90
2327;DHT22;1174;51.588;7.328;2023-03-01T04:53:44;-1.60;99.90
2327;DHT22;1174;51.588;7.328;2023-03-01T04:56:11;-1.70;99.90
2327;DHT22;1174;51.588;7.328;2023-03-01T04:58:41;-1.70;99.90
2327;DHT22;1174;51.588;7.328;2023-03-01T05:01:09;-1.80;99.90
2327;DHT22;1174;51.588;7.328;2023-03-01T05:03:41;-1.80;99.90
2327;DHT22;1174;51.588;7.328;2023-03-01T05:06:08;-1.70;99.90
2327;DHT22;1174;51.588;7.328;2023-03-01T05:08:36;-1.70;99.90
2327;DHT22;1174;51.588;7.328;2023-03-01T05:11:07;-1.80;99.90
2327;DHT22;1174;51.588;7.328;2023-03-01T05:13:35;-1.70;99.90
2327;DHT22;1174;51.588;7.328;2023-03-01T05:16:06;-1.80;99.90
2327;DHT22;1174;51.588;7.328;2023-03-01T05:18:37;-1.70;99.90
2327;DHT22;1174;51.588;7.328;2023-03-01T05:21:06;-1.80;99.90
2327;DHT22;1174;51.588;7.328;2023-03-01T05:23:35;-2.00;99.90
2327;DHT22;1174;51.588;7.328;2023-03-01T05:26:03;-2.10;99.90
2327;DHT22;1174;51.588;7.328;2023-03-01T05:28:31;-2.00;99.90
2327;DHT22;1174;51.588;7.328;2023-03-01T05:30:58;-2.00;99.90
2327;DHT22;1174;51.588;7.328;2023-03-01T05:33:27;-1.90;99.90
2327;DHT22;1174;51.588;7.328;2023-03-01T05:35:54;-1.90;99.90
2327;DHT22;1174;51.588;7.328;2023-03-01T05:38:21;-1.90;99.90
2327;DHT22;1174;51.588;7.328;2023-03-01T05:40:49;-1.90;99.90
2327;DHT22;1174;51.588;7.328;2023-03-01T05:43:16;-1.90;99.90
2327;DHT22;1174;51.588;7.328;2023-03-01T05:45:44;-2.00;99.90
2327;DHT22;1174;51.588;7.328;2023-03-01T05:48:11;-2.00;99.90
2327;DHT22;1174;51.588;7.328;2023-03-01T05:50:41;-1.90;99.90
2327;DHT22;1174;51.588;7.328;2023-03-01T05:53:11;-1.90;99.90
2327;DHT22;1174;51.588;7.328;2023-03-01T05:55:38;-1.90;99.90
2327;DHT22;1174;51.588;7.328;2023-03-01T05:58:07;-2.00;99.90
2327;DHT22;1174;51.588;7.328;2023-03-01T06:00:34;-2.00;99.90
2327;DHT22;1174;51.588;7.328;2023-03-01T06:03:01;-2.00;99.90
2327;DHT22;1174;51.588;7.328;2023-03-01T06:05:29;-2.10;99.90
2327;DHT22;1174;51.588;7.328;2023-03-01T06:08:00;-2.10;99.90
2327;DHT22;1174;51.588;7.328;2023-03-01T06:10:28;-2.10;99.90
2327;DHT22;1174;51.588;7.328;2023-03-01T06:12:55;-2.10;99.90
2327;DHT22;1174;51.588;7.328;2023-03-01T06:15:23;-2.10;99.90
2327;DHT22;1174;51.588;7.328;2023-03-01T06:17:50;-2.00;99.90
2327;DHT22;1174;51.588;7.328;2023-03-01T06:20:19;-1.90;99.90
2327;DHT22;1174;51.588;7.328;2023-03-01T06:22:47;-1.90;99.90
2327;DHT22;1174;51.588;7.328;2023-03-01T06:25:17;-1.90;99.90
2327;DHT22;1174;51.588;7.328;2023-03-01T06:27:46;-1.80;99.90
2327;DHT22;1174;51.588;7.328;2023-03-01T06:30:15;-1.90;99.90
2327;DHT22;1174;51.588;7.328;2023-03-01T06:32:44;-2.10;99.90
2327;DHT22;1174;51.588;7.328;2023-03-01T06:35:12;-2.20;99.90
2327;DHT22;1174;51.588;7.328;2023-03-01T06:37:41;-2.20;99.90
2327;DHT22;1174;51.588;7.328;2023-03-01T06:40:10;-2.20;99.90
2327;DHT22;1174;51.588;7.328;2023-03-01T06:42:43;-2.10;99.90
2327;DHT22;1174;51.588;7.328;2023-03-01T06:45:11;-1.90;99.90
2327;DHT22;1174;51.588;7.328;2023-03-01T06:47:37;-1.80;99.90
2327;DHT22;1174;51.588;7.328;2023-03-01T06:50:05;-1.80;99.90
2327;DHT22;1174;51.588;7.328;2023-03-01T06:52:32;-1.60;99.90
2327;DHT22;1174;51.588;7.328;2023-03-01T06:54:59;-1.60;99.90
2327;DHT22;1174;51.588;7.328;2023-03-01T06:57:27;-1.50;99.90
2327;DHT22;1174;51.588;7.328;2023-03-01T06:59:55;-1.30;99.90
2327;DHT22;1174;51.588;7.328;2023-03-01T07:02:22;-1.10;99.90
2327;DHT22;1174;51.588;7.328;2023-03-01T07:04:49;-0.90;99.90
2327;DHT22;1174;51.588;7.328;2023-03-01T07:07:16;-0.60;99.90
2327;DHT22;1174;51.588;7.328;2023-03-01T07:09:44;-0.40;99.90
2327;DHT22;1174;51.588;7.328;2023-03-01T07:12:14;-0.30;99.90
2327;DHT22;1174;51.588;7.328;2023-03-01T07:14:41;-0.30;99.90
2327;DHT22;1174;51.588;7.328;2023-03-01T07:17:09;-0.20;99.90
2327;DHT22;1174;51.588;7.328;2023-03-01T07:19:36;-0.10;99.90
2327;DHT22;1174;51.588;7.328;2023-03-01T07:22:03;-0.10;99.90
2327;DHT22;1174;51.588;7.328;2023-03-01T07:24:33;-0.10;99.90
2327;DHT22;1174;51.588;7.328;2023-03-01T07:27:03;0.00;99.90
2327;DHT22;1174;51.588;7.328;2023-03-01T07:29:30;0.20;99.90
2327;DHT22;1174;51.588;7.328;2023-03-01T07:31:57;0.30;99.90
2327;DHT22;1174;51.588;7.328;2023-03-01T07:34:25;0.40;99.90
2327;DHT22;1174;51.588;7.328;2023-03-01T07:36:52;0.50;99.90
2327;DHT22;1174;51.588;7.328;2023-03-01T07:39:19;0.60;99.90
2327;DHT22;1174;51.588;7.328;2023-03-01T07:41:49;0.70;99.90
2327;DHT22;1174;51.588;7.328;2023-03-01T07:44:16;0.80;99.90
2327;DHT22;1174;51.588;7.328;2023-03-01T07:46:43;1.10;99.90
2327;DHT22;1174;51.588;7.328;2023-03-01T07:49:10;1.20;99.90
2327;DHT22;1174;51.588;7.328;2023-03-01T07:51:39;1.60;99.90
2327;DHT22;1174;51.588;7.328;2023-03-01T07:54:05;2.00;99.90
2327;DHT22;1174;51.588;7.328;2023-03-01T07:56:32;2.10;99.90
2327;DHT22;1174;51.588;7.328;2023-03-01T07:58:59;2.50;99.90
2327;DHT22;1174;51.588;7.328;2023-03-01T08:01:26;3.30;99.90
2327;DHT22;1174;51.588;7.328;2023-03-01T08:03:53;3.70;99.90
2327;DHT22;1174;51.588;7.328;2023-03-01T08:06:20;3.40;99.90
2327;DHT22;1174;51.588;7.328;2023-03-01T08:08:48;3.00;99.90
2327;DHT22;1174;51.588;7.328;2023-03-01T08:11:15;2.90;99.90
2327;DHT22;1174;51.588;7.328;2023-03-01T08:13:43;3.00;99.90
2327;DHT22;1174;51.588;7.328;2023-03-01T08:16:11;2.90;99.90
2327;DHT22;1174;51.588;7.328;2023-03-01T08:18:39;3.30;99.90
2327;DHT22;1174;51.588;7.328;2023-03-01T08:21:07;3.80;99.90
2327;DHT22;1174;51.588;7.328;2023-03-01T08:23:37;3.60;99.90
2327;DHT22;1174;51.588;7.328;2023-03-01T08:26:07;3.50;99.90
2327;DHT22;1174;51.588;7.328;2023-03-01T08:28:35;3.60;99.90
2327;DHT22;1174;51.588;7.328;2023-03-01T08:31:03;3.70;99.90
2327;DHT22;1174;51.588;7.328;2023-03-01T08:33:30;3.80;99.90
2327;DHT22;1174;51.588;7.328;2023-03-01T08:36:04;4.20;99.90
2327;DHT22;1174;51.588;7.328;2023-03-01T08:38:32;4.50;99.90
2327;DHT22;1174;51.588;7.328;2023-03-01T08:41:00;5.20;99.90
2327;DHT22;1174;51.588;7.328;2023-03-01T08:43:29;5.10;99.90
2327;DHT22;1174;51.588;7.328;2023-03-01T08:45:56;5.30;99.90
2327;DHT22;1174;51.588;7.328;2023-03-01T08:48:23;5.60;99.90
2327;DHT22;1174;51.588;7.328;2023-03-01T08:50:50;6.30;99.90
2327;DHT22;1174;51.588;7.328;2023-03-01T08:53:20;6.60;99.90
2327;DHT22;1174;51.588;7.328;2023-03-01T08:55:46;6.40;99.90
2327;DHT22;1174;51.588;7.328;2023-03-01T08:58:13;7.00;99.90
2327;DHT22;1174;51.588;7.328;2023-03-01T09:00:42;8.10;99.90
2327;DHT22;1174;51.588;7.328;2023-03-01T09:03:11;9.10;99.90
2327;DHT22;1174;51.588;7.328;2023-03-01T09:05:38;9.00;98.40
2327;DHT22;1174;51.588;7.328;2023-03-01T09:08:06;8.90;97.40
2327;DHT22;1174;51.588;7.328;2023-03-01T09:10:37;8.70;97.40
2327;DHT22;1174;51.588;7.328;2023-03-01T09:13:04;8.70;97.50
2327;DHT22;1174;51.588;7.328;2023-03-01T09:15:31;8.90;96.50
2327;DHT22;1174;51.588;7.328;2023-03-01T09:18:00;9.10;95.60
2327;DHT22;1174;51.588;7.328;2023-03-01T09:20:27;9.50;95.50
2327;DHT22;1174;51.588;7.328;2023-03-01T09:22:55;9.50;94.50
2327;DHT22;1174;51.588;7.328;2023-03-01T09:25:22;10.60;93.60
2327;DHT22;1174;51.588;7.328;2023-03-01T09:27:53;11.10;92.20
2327;DHT22;1174;51.588;7.328;2023-03-01T09:30:21;12.10;90.80
2327;DHT22;1174;51.588;7.328;2023-03-01T09:32:49;11.90;85.80
2327;DHT22;1174;51.588;7.328;2023-03-01T09:35:18;12.10;86.80
2327;DHT22;1174;51.588;7.328;2023-03-01T09:37:45;11.90;83.00
2327;DHT22;1174;51.588;7.328;2023-03-01T09:40:15;12.00;83.30
2327;DHT22;1174;51.588;7.328;2023-03-01T09:42:53;11.60;80.40
2327;DHT22;1174;51.588;7.328;2023-03-01T09:45:28;11.10;81.40
2327;DHT22;1174;51.588;7.328;2023-03-01T09:47:57;11.70;81.40
2327;DHT22;1174;51.588;7.328;2023-03-01T09:50:33;12.00;80.70
2327;DHT22;1174;51.588;7.328;2023-03-01T09:53:02;12.80;78.30
2327;DHT22;1174;51.588;7.328;2023-03-01T09:55:33;12.80;73.80
2327;DHT22;1174;51.588;7.328;2023-03-01T09:58:15;12.20;73.70
2327;DHT22;1174;51.588;7.328;2023-03-01T10:00:51;12.10;73.40
2327;DHT22;1174;51.588;7.328;2023-03-01T10:03:21;11.40;74.10
2327;DHT22;1174;51.588;7.328;2023-03-01T10:05:58;12.30;74.80
2327;DHT22;1174;51.588;7.328;2023-03-01T10:08:34;13.10;71.80
2327;DHT22;1174;51.588;7.328;2023-03-01T10:11:05;12.70;68.50
2327;DHT22;1174;51.588;7.328;2023-03-01T10:13:45;12.00;70.20
2327;DHT22;1174;51.588;7.328;2023-03-01T10:16:16;11.90;68.60
2327;DHT22;1174;51.588;7.328;2023-03-01T10:18:48;11.80;70.50
2327;DHT22;1174;51.588;7.328;2023-03-01T10:21:20;11.90;69.10
2327;DHT22;1174;51.588;7.328;2023-03-01T10:23:50;12.20;68.70
2327;DHT22;1174;51.588;7.328;2023-03-01T10:26:43;12.50;69.80
2327;DHT22;1174;51.588;7.328;2023-03-01T10:29:12;12.60;68.40
2327;DHT22;1174;51.588;7.328;2023-03-01T10:31:42;12.80;67.20
2327;DHT22;1174;51.588;7.328;2023-03-01T10:34:13;12.60;67.40
2327;DHT22;1174;51.588;7.328;2023-03-01T10:36:43;13.30;66.50
2327;DHT22;1174;51.588;7.328;2023-03-01T10:39:19;13.00;64.10
2327;DHT22;1174;51.588;7.328;2023-03-01T10:41:55;13.10;65.20
2327;DHT22;1174;51.588;7.328;2023-03-01T10:44:37;13.40;62.70
2327;DHT22;1174;51.588;7.328;2023-03-01T10:47:04;13.20;62.40
2327;DHT22;1174;51.588;7.328;2023-03-01T10:49:31;12.80;63.00
2327;DHT22;1174;51.588;7.328;2023-03-01T10:52:15;13.50;62.70
2327;DHT22;1174;51.588;7.328;2023-03-01T10:54:52;14.40;62.20
2327;DHT22;1174;51.588;7.328;2023-03-01T10:57:34;13.60;58.50
2327;DHT22;1174;51.588;7.328;2023-03-01T11:00:30;13.00;59.70
2327;DHT22;1174;51.588;7.328;2023-03-01T11:03:11;13.40;60.90
2327;DHT22;1174;51.588;7.328;2023-03-01T11:05:55;13.80;61.30
2327;DHT22;1174;51.588;7.328;2023-03-01T11:08:41;14.40;59.90
2327;DHT22;1174;51.588;7.328;2023-03-01T11:11:24;14.30;58.50
2327;DHT22;1174;51.588;7.328;2023-03-01T11:13:55;13.90;58.00
2327;DHT22;1174;51.588;7.328;2023-03-01T11:16:25;13.70;58.90
2327;DHT22;1174;51.588;7.328;2023-03-01T11:18:57;13.00;58.80
2327;DHT22;1174;51.588;7.328;2023-03-01T11:21:25;13.20;58.80
2327;DHT22;1174;51.588;7.328;2023-03-01T11:23:56;14.00;58.40
2327;DHT22;1174;51.588;7.328;2023-03-01T11:26:24;14.10;58.10
2327;DHT22;1174;51.588;7.328;2023-03-01T11:28:54;13.80;58.90
2327;DHT22;1174;51.588;7.328;2023-03-01T11:31:23;13.60;57.70
2327;DHT22;1174;51.588;7.328;2023-03-01T11:33:54;13.60;57.60
2327;DHT22;1174;51.588;7.328;2023-03-01T11:36:29;13.90;57.40
2327;DHT22;1174;51.588;7.328;2023-03-01T11:39:18;15.00;57.60
2327;DHT22;1174;51.588;7.328;2023-03-01T11:41:49;15.10;56.50
2327;DHT22;1174;51.588;7.328;2023-03-01T11:44:23;14.70;56.00
2327;DHT22;1174;51.588;7.328;2023-03-01T11:47:10;14.10;56.00
2327;DHT22;1174;51.588;7.328;2023-03-01T11:49:54;14.60;57.30
2327;DHT22;1174;51.588;7.328;2023-03-01T11:52:32;15.60;55.60
2327;DHT22;1174;51.588;7.328;2023-03-01T11:55:18;14.90;55.50
2327;DHT22;1174;51.588;7.328;2023-03-01T11:58:05;15.40;55.40
2327;DHT22;1174;51.588;7.328;2023-03-01T12:00:44;16.10;55.20
2327;DHT22;1174;51.588;7.328;2023-03-01T12:03:25;16.20;53.90
2327;DHT22;1174;51.588;7.328;2023-03-01T12:06:28;15.50;53.60
2327;DHT22;1174;51.588;7.328;2023-03-01T12:09:11;15.50;54.50
2327;DHT22;1174;51.588;7.328;2023-03-01T12:12:02;16.60;54.50
2327;DHT22;1174;51.588;7.328;2023-03-01T12:14:45;17.10;52.60
2327;DHT22;1174;51.588;7.328;2023-03-01T12:17:32;17.10;52.90
2327;DHT22;1174;51.588;7.328;2023-03-01T12:20:13;17.20;52.50
2327;DHT22;1174;51.588;7.328;2023-03-01T12:22:53;17.00;51.90
2327;DHT22;1174;51.588;7.328;2023-03-01T12:25:32;17.90;51.40
2327;DHT22;1174;51.588;7.328;2023-03-01T12:34:08;15.50;52.00
2327;DHT22;1174;51.588;7.328;2023-03-01T12:36:53;15.70;52.60
2327;DHT22;1174;51.588;7.328;2023-03-01T12:39:38;16.00;52.10
2327;DHT22;1174;51.588;7.328;2023-03-01T12:42:14;15.50;51.60
2327;DHT22;1174;51.588;7.328;2023-03-01T12:47:53;16.00;52.50
2327;DHT22;1174;51.588;7.328;2023-03-01T12:50:28;16.70;52.00
2327;DHT22;1174;51.588;7.328;2023-03-01T12:52:58;16.70;50.40
2327;DHT22;1174;51.588;7.328;2023-03-01T12:55:30;15.40;51.40
2327;DHT22;1174;51.588;7.328;2023-03-01T12:58:06;15.80;52.30
2327;DHT22;1174;51.588;7.328;2023-03-01T13:00:41;15.50;51.60
2327;DHT22;1174;51.588;7.328;2023-03-01T13:03:19;16.20;51.80
2327;DHT22;1174;51.588;7.328;2023-03-01T13:06:04;15.80;50.60
2327;DHT22;1174;51.588;7.328;2023-03-01T13:08:38;15.70;51.70
2327;DHT22;1174;51.588;7.328;2023-03-01T13:11:15;15.70;51.10
2327;DHT22;1174;51.588;7.328;2023-03-01T13:13:45;16.60;50.80
2327;DHT22;1174;51.588;7.328;2023-03-01T13:16:39;16.50;50.40
2327;DHT22;1174;51.588;7.328;2023-03-01T13:19:12;16.80;50.50
2327;DHT22;1174;51.588;7.328;2023-03-01T13:21:41;16.60;49.70
2327;DHT22;1174;51.588;7.328;2023-03-01T13:24:24;16.00;50.80
2327;DHT22;1174;51.588;7.328;2023-03-01T13:27:11;16.30;51.70
2327;DHT22;1174;51.588;7.328;2023-03-01T13:29:44;16.70;50.70
2327;DHT22;1174;51.588;7.328;2023-03-01T13:32:21;16.90;50.70
2327;DHT22;1174;51.588;7.328;2023-03-01T13:34:51;16.90;50.10
2327;DHT22;1174;51.588;7.328;2023-03-01T13:37:23;16.40;48.70
2327;DHT22;1174;51.588;7.328;2023-03-01T13:39:55;15.00;50.20
2327;DHT22;1174;51.588;7.328;2023-03-01T13:42:41;15.60;51.10
2327;DHT22;1174;51.588;7.328;2023-03-01T13:45:32;16.50;50.80
2327;DHT22;1174;51.588;7.328;2023-03-01T13:48:09;17.30;49.10
2327;DHT22;1174;51.588;7.328;2023-03-01T13:50:43;16.20;48.60
2327;DHT22;1174;51.588;7.328;2023-03-01T13:53:16;15.60;49.30
2327;DHT22;1174;51.588;7.328;2023-03-01T13:55:46;15.50;49.40
2327;DHT22;1174;51.588;7.328;2023-03-01T13:58:22;15.30;49.80
2327;DHT22;1174;51.588;7.328;2023-03-01T14:00:57;15.80;50.00
2327;DHT22;1174;51.588;7.328;2023-03-01T14:03:26;15.60;49.80
2327;DHT22;1174;51.588;7.328;2023-03-01T14:06:05;15.40;50.20
2327;DHT22;1174;51.588;7.328;2023-03-01T14:08:34;14.90;51.40
2327;DHT22;1174;51.588;7.328;2023-03-01T14:14:29;14.30;51.00
2327;DHT22;1174;51.588;7.328;2023-03-01T14:17:05;15.40;51.30
2327;DHT22;1174;51.588;7.328;2023-03-01T14:19:35;15.20;50.50
2327;DHT22;1174;51.588;7.328;2023-03-01T14:22:13;15.60;51.40
2327;DHT22;1174;51.588;7.328;2023-03-01T14:24:47;15.50;50.60
2327;DHT22;1174;51.588;7.328;2023-03-01T14:27:15;15.00;50.60
2327;DHT22;1174;51.588;7.328;2023-03-01T14:29:55;15.10;50.90
2327;DHT22;1174;51.588;7.328;2023-03-01T14:32:26;15.20;51.90
2327;DHT22;1174;51.588;7.328;2023-03-01T14:34:55;15.70;50.20
2327;DHT22;1174;51.588;7.328;2023-03-01T14:37:25;15.00;51.40
2327;DHT22;1174;51.588;7.328;2023-03-01T14:39:53;14.50;50.80
2327;DHT22;1174;51.588;7.328;2023-03-01T14:42:22;14.60;51.00
2327;DHT22;1174;51.588;7.328;2023-03-01T14:44:51;13.60;51.40
2327;DHT22;1174;51.588;7.328;2023-03-01T14:47:27;13.10;52.10
2327;DHT22;1174;51.588;7.328;2023-03-01T14:49:59;13.00;52.60
2327;DHT22;1174;51.588;7.328;2023-03-01T14:52:33;13.30;51.50
2327;DHT22;1174;51.588;7.328;2023-03-01T14:55:05;13.40;52.10
2327;DHT22;1174;51.588;7.328;2023-03-01T14:57:33;13.90;51.60
2327;DHT22;1174;51.588;7.328;2023-03-01T15:00:03;14.40;51.30
2327;DHT22;1174;51.588;7.328;2023-03-01T15:02:33;14.60;50.70
2327;DHT22;1174;51.588;7.328;2023-03-01T15:05:03;14.00;50.80
2327;DHT22;1174;51.588;7.328;2023-03-01T15:07:34;13.60;51.80
2327;DHT22;1174;51.588;7.328;2023-03-01T15:10:06;14.60;51.80
2327;DHT22;1174;51.588;7.328;2023-03-01T15:12:40;15.50;51.10
2327;DHT22;1174;51.588;7.328;2023-03-01T15:15:35;15.30;50.50
2327;DHT22;1174;51.588;7.328;2023-03-01T15:18:05;15.30;49.70
2327;DHT22;1174;51.588;7.328;2023-03-01T15:20:35;13.80;50.20
2327;DHT22;1174;51.588;7.328;2023-03-01T15:23:03;13.80;50.70
2327;DHT22;1174;51.588;7.328;2023-03-01T15:25:32;14.10;51.10
2327;DHT22;1174;51.588;7.328;2023-03-01T15:28:04;14.50;51.30
2327;DHT22;1174;51.588;7.328;2023-03-01T15:30:35;14.50;51.70
2327;DHT22;1174;51.588;7.328;2023-03-01T15:33:30;14.80;51.80
2327;DHT22;1174;51.588;7.328;2023-03-01T15:36:00;15.20;50.70
2327;DHT22;1174;51.588;7.328;2023-03-01T15:38:33;14.70;49.60
2327;DHT22;1174;51.588;7.328;2023-03-01T15:41:21;14.50;50.90
2327;DHT22;1174;51.588;7.328;2023-03-01T15:43:49;14.50;51.30
2327;DHT22;1174;51.588;7.328;2023-03-01T15:46:18;14.50;50.10
2327;DHT22;1174;51.588;7.328;2023-03-01T15:48:47;14.00;50.20
2327;DHT22;1174;51.588;7.328;2023-03-01T15:51:18;13.60;51.00
2327;DHT22;1174;51.588;7.328;2023-03-01T15:53:51;13.90;50.60
2327;DHT22;1174;51.588;7.328;2023-03-01T15:56:19;12.80;50.80
2327;DHT22;1174;51.588;7.328;2023-03-01T15:58:49;11.90;53.40
2327;DHT22;1174;51.588;7.328;2023-03-01T16:01:17;11.20;54.20
2327;DHT22;1174;51.588;7.328;2023-03-01T16:03:47;10.60;55.60
2327;DHT22;1174;51.588;7.328;2023-03-01T16:06:14;10.40;56.60
2327;DHT22;1174;51.588;7.328;2023-03-01T16:08:42;10.40;56.70
2327;DHT22;1174;51.588;7.328;2023-03-01T16:11:14;10.10;55.10
2327;DHT22;1174;51.588;7.328;2023-03-01T16:13:42;9.70;55.70
2327;DHT22;1174;51.588;7.328;2023-03-01T16:16:10;9.60;56.80
2327;DHT22;1174;51.588;7.328;2023-03-01T16:18:41;9.70;57.10
2327;DHT22;1174;51.588;7.328;2023-03-01T16:21:12;9.90;58.10
2327;DHT22;1174;51.588;7.328;2023-03-01T16:23:43;9.90;58.50
2327;DHT22;1174;51.588;7.328;2023-03-01T16:26:10;9.70;58.50
2327;DHT22;1174;51.588;7.328;2023-03-01T16:28:38;9.50;59.00
2327;DHT22;1174;51.588;7.328;2023-03-01T16:31:05;9.40;59.40
2327;DHT22;1174;51.588;7.328;2023-03-01T16:33:32;9.00;59.60
2327;DHT22;1174;51.588;7.328;2023-03-01T16:36:00;9.10;60.70
2327;DHT22;1174;51.588;7.328;2023-03-01T16:38:28;8.90;60.00
2327;DHT22;1174;51.588;7.328;2023-03-01T16:40:59;8.70;60.90